Terminal Aerodrome Forecast
Issued by NWS

Home | Current Version | Previous Version | Text Only | Print | Product List | Glossary On
Versions: 1 2 3 4 5 6 7 8 9 10 11 12 13 14 15 16 17
000
FTAK31 PAJN 260200 AAA
TAFAJN
TAF AMD
PAJN 260252Z 2603/2624 29006KT P6SM -SHRA SCT025 BKN040 BKN070
      TEMPO 2603/2606 VRB04KT 6SM -SHRASN BR SCT015 BKN030 OVC040
     FM260600 VRB04KT P6SM VCSH BKN040 BKN070
     FM260800 09005KT P6SM VCFG SCT005 SCT040 BKN150
     FM261900 10005KT P6SM SCT040 BKN150=

USA.gov is the U.S. government's official web portal to all federal, state and local government web resources and services.